createdAt,value
2022-12-03T00:00:33.226Z,4.94
2022-12-03T00:01:35.105Z,4.59
2022-12-03T00:02:37.083Z,5.75
2022-12-03T00:03:39.348Z,4.86
2022-12-03T00:04:41.637Z,5.13
2022-12-03T00:05:48.780Z,5.16
2022-12-03T00:06:47.388Z,5.21
2022-12-03T00:07:49.335Z,4.94
2022-12-03T00:08:51.382Z,4.77
2022-12-03T00:09:53.352Z,5.14
2022-12-03T00:10:55.312Z,5.15
2022-12-03T00:11:57.176Z,4.87
2022-12-03T00:12:59.057Z,4.89
2022-12-03T00:14:00.946Z,4.48
2022-12-03T00:15:04.648Z,4.89
2022-12-03T00:16:09.185Z,4.85
2022-12-03T00:17:11.943Z,5.38
2022-12-03T00:18:13.916Z,5.50
2022-12-03T00:19:15.882Z,5.43
2022-12-03T00:20:21.090Z,4.41
2022-12-03T00:21:24.763Z,5.54
2022-12-03T00:22:27.293Z,4.99
2022-12-03T00:23:29.206Z,5.43
2022-12-03T00:24:31.070Z,4.48
2022-12-03T00:25:33.026Z,5.06
2022-12-03T00:26:34.988Z,4.37
2022-12-03T00:27:36.879Z,5.31
2022-12-03T00:28:40.173Z,5.34
2022-12-03T00:29:42.165Z,4.58
2022-12-03T00:30:44.208Z,5.09
2022-12-03T00:31:46.457Z,4.75
2022-12-03T00:32:48.568Z,4.46
2022-12-03T00:33:52.439Z,5.07
2022-12-03T00:34:54.539Z,4.47
2022-12-03T00:35:56.729Z,4.71
2022-12-03T00:36:58.700Z,4.53
2022-12-03T00:38:00.572Z,5.15
2022-12-03T00:39:02.997Z,4.95
2022-12-03T00:40:07.471Z,4.89
2022-12-03T00:41:10.613Z,5.34
2022-12-03T00:42:13.706Z,5.08
2022-12-03T00:43:15.599Z,4.78
2022-12-03T00:44:17.458Z,5.27
2022-12-03T00:45:19.319Z,4.81
2022-12-03T00:46:23.207Z,5.06
2022-12-03T00:47:25.382Z,5.15
2022-12-03T00:48:27.264Z,4.84
2022-12-03T00:49:29.158Z,4.66
2022-12-03T00:50:31.134Z,4.75
2022-12-03T00:51:32.968Z,4.88
2022-12-03T00:52:35.469Z,4.99
2022-12-03T00:53:37.370Z,4.54
2022-12-03T00:54:39.215Z,4.56
2022-12-03T00:55:41.080Z,4.86
2022-12-03T00:56:43.207Z,4.63
2022-12-03T00:57:45.050Z,4.89
2022-12-03T00:58:46.909Z,4.86
2022-12-03T00:59:49.927Z,4.49
2022-12-03T01:00:52.255Z,4.67
2022-12-03T01:01:54.204Z,5.32
2022-12-03T01:02:56.329Z,4.61
2022-12-03T01:03:58.203Z,4.79
2022-12-03T01:05:00.945Z,5.22
2022-12-03T01:06:03.410Z,4.71
2022-12-03T01:07:05.380Z,4.73
2022-12-03T01:08:08.251Z,4.77
2022-12-03T01:09:10.633Z,4.86
2022-12-03T01:10:13.426Z,4.79
2022-12-03T01:11:15.296Z,5.20
2022-12-03T01:12:17.170Z,4.63
2022-12-03T01:13:19.186Z,4.44
2022-12-03T01:14:21.434Z,4.44
2022-12-03T01:15:23.315Z,4.74
2022-12-03T01:16:25.335Z,4.88
2022-12-03T01:17:27.331Z,4.96
2022-12-03T01:18:29.204Z,4.83
2022-12-03T01:19:31.057Z,4.82
2022-12-03T01:20:33.152Z,4.76
2022-12-03T01:21:35.633Z,5.07
2022-12-03T01:22:37.499Z,4.35
2022-12-03T01:23:39.372Z,4.73
2022-12-03T01:24:41.242Z,4.45
2022-12-03T01:25:44.914Z,4.99
2022-12-03T01:26:47.172Z,4.75
2022-12-03T01:27:49.009Z,4.73
2022-12-03T01:28:51.735Z,5.26
2022-12-03T01:29:53.673Z,4.75
2022-12-03T01:30:55.669Z,5.19
2022-12-03T01:31:57.614Z,5.08
2022-12-03T01:32:59.499Z,5.49
2022-12-03T01:34:01.368Z,5.59
2022-12-03T01:35:03.816Z,4.88
2022-12-03T01:36:07.301Z,5.37
2022-12-03T01:37:10.494Z,5.03
2022-12-03T01:38:12.357Z,5.34
2022-12-03T01:39:14.328Z,5.87
2022-12-03T01:40:19.191Z,5.37
2022-12-03T01:41:23.984Z,5.51
2022-12-03T01:42:32.381Z,5.79
2022-12-03T01:43:35.507Z,4.96
2022-12-03T01:44:40.198Z,4.97
2022-12-03T01:45:42.303Z,5.35
2022-12-03T01:46:45.569Z,4.61
2022-12-03T01:47:48.168Z,5.46
2022-12-03T01:48:52.954Z,5.44
2022-12-03T01:51:08.022Z,5.24
2022-12-03T01:52:13.148Z,5.41
2022-12-03T01:53:17.352Z,5.81
2022-12-03T01:54:22.621Z,5.45
2022-12-03T01:55:25.748Z,5.12
2022-12-03T01:56:27.732Z,4.89
2022-12-03T01:57:33.353Z,5.34
2022-12-03T01:58:35.225Z,4.49
2022-12-03T01:59:41.078Z,4.81
2022-12-03T02:00:43.075Z,4.66
2022-12-03T02:01:45.638Z,4.93
2022-12-03T02:02:50.822Z,4.67
2022-12-03T02:03:52.769Z,4.71
2022-12-03T02:04:55.375Z,4.79
2022-12-03T02:05:57.660Z,4.94
2022-12-03T02:07:21.533Z,5.31
2022-12-03T02:08:36.996Z,5.01
2022-12-03T02:09:38.934Z,4.55
2022-12-03T02:10:40.975Z,4.70
2022-12-03T02:11:46.574Z,4.70
2022-12-03T02:12:52.282Z,5.02
2022-12-03T02:13:58.072Z,4.60
2022-12-03T02:15:01.238Z,4.79
2022-12-03T02:16:04.018Z,5.17
2022-12-03T02:17:05.991Z,4.60
2022-12-03T02:18:10.765Z,4.25
2022-12-03T02:19:23.713Z,4.32
2022-12-03T02:20:26.092Z,4.69
2022-12-03T02:21:41.578Z,4.45
2022-12-03T02:22:53.672Z,4.59
2022-12-03T02:24:19.313Z,4.31
2022-12-03T02:25:24.953Z,4.52
2022-12-03T02:26:28.027Z,4.52
2022-12-03T02:27:29.930Z,5.08
2022-12-03T02:28:32.211Z,4.15
2022-12-03T02:29:35.498Z,4.91
2022-12-03T02:30:37.693Z,4.56
2022-12-03T02:31:39.704Z,5.15
2022-12-03T02:32:42.149Z,4.60
2022-12-03T02:33:46.229Z,4.81
2022-12-03T02:34:49.001Z,4.39
2022-12-03T02:35:51.045Z,4.47
2022-12-03T02:36:53.194Z,4.51
2022-12-03T02:38:10.506Z,4.31
2022-12-03T02:39:12.861Z,4.60
2022-12-03T02:40:21.468Z,4.41
2022-12-03T02:41:23.938Z,5.07
2022-12-03T02:42:26.311Z,3.97
2022-12-03T02:43:28.731Z,4.75
2022-12-03T02:44:30.634Z,4.68
2022-12-03T02:45:45.346Z,4.95
2022-12-03T02:46:47.671Z,4.31
2022-12-03T02:47:56.251Z,4.15
2022-12-03T02:48:59.107Z,4.04
2022-12-03T02:50:02.081Z,4.35
2022-12-03T02:51:07.685Z,4.42
2022-12-03T02:52:10.164Z,4.43
2022-12-03T02:53:15.789Z,4.92
2022-12-03T02:54:19.035Z,4.37
2022-12-03T02:55:22.340Z,4.49
2022-12-03T02:56:28.187Z,4.28
2022-12-03T02:57:30.785Z,4.42
2022-12-03T02:58:33.443Z,4.44
2022-12-03T02:59:35.408Z,4.70
2022-12-03T03:00:38.715Z,4.35
2022-12-03T03:01:41.846Z,4.33
2022-12-03T03:02:46.118Z,4.48
2022-12-03T03:03:49.345Z,3.78
2022-12-03T03:04:52.059Z,3.86
2022-12-03T03:05:55.635Z,4.26
2022-12-03T03:06:58.744Z,4.99
2022-12-03T03:08:01.589Z,4.66
2022-12-03T03:09:04.537Z,4.36
2022-12-03T03:10:10.713Z,4.71
2022-12-03T03:11:12.651Z,4.76
2022-12-03T03:12:16.470Z,4.57
2022-12-03T03:13:20.451Z,4.39
2022-12-03T03:14:22.423Z,4.43
2022-12-03T03:15:24.914Z,4.47
2022-12-03T03:16:27.295Z,4.53
2022-12-03T03:17:29.404Z,4.25
2022-12-03T03:18:33.760Z,3.83
2022-12-03T03:19:35.730Z,4.94
2022-12-03T03:20:38.758Z,4.20
2022-12-03T03:21:40.630Z,4.62
2022-12-03T03:22:43.128Z,5.14
2022-12-03T03:23:45.384Z,4.17
2022-12-03T03:24:47.438Z,4.55
2022-12-03T03:25:53.143Z,4.48
2022-12-03T03:26:55.239Z,4.96
2022-12-03T03:27:57.228Z,4.89
2022-12-03T03:28:59.282Z,5.03
2022-12-03T03:30:01.253Z,4.49
2022-12-03T03:31:05.882Z,5.22
2022-12-03T03:32:07.947Z,5.58
2022-12-03T03:33:12.399Z,5.49
2022-12-03T03:34:15.397Z,4.73
2022-12-03T03:35:17.965Z,4.64
2022-12-03T03:36:20.478Z,4.13
2022-12-03T03:37:24.410Z,4.72
2022-12-03T03:38:28.896Z,4.85
2022-12-03T03:39:31.120Z,5.02
2022-12-03T03:40:33.655Z,4.57
2022-12-03T03:41:36.231Z,4.75
2022-12-03T03:42:38.695Z,5.35
2022-12-03T03:43:43.347Z,5.11
2022-12-03T03:44:45.676Z,4.28
2022-12-03T03:45:48.247Z,4.96
2022-12-03T03:46:51.866Z,4.99
2022-12-03T03:47:54.811Z,4.55
2022-12-03T03:48:56.689Z,4.97
2022-12-03T03:49:58.771Z,4.67
2022-12-03T03:51:03.697Z,4.87
2022-12-03T03:52:06.226Z,4.24
2022-12-03T03:53:09.196Z,4.33
2022-12-03T03:54:11.900Z,4.66
2022-12-03T03:55:14.187Z,4.45
2022-12-03T03:56:17.478Z,4.65
2022-12-03T03:57:19.806Z,4.81
2022-12-03T03:58:21.843Z,4.11
2022-12-03T03:59:23.823Z,4.31
2022-12-03T04:00:26.327Z,4.39
2022-12-03T04:01:29.251Z,4.47
2022-12-03T04:02:33.420Z,4.78
2022-12-03T04:03:35.307Z,5.19
2022-12-03T04:04:37.235Z,4.23
2022-12-03T04:05:40.909Z,4.56
2022-12-03T04:06:43.667Z,4.42
2022-12-03T04:07:48.245Z,5.12
2022-12-03T04:08:51.878Z,4.64
2022-12-03T04:09:53.739Z,4.60
2022-12-03T04:10:56.042Z,4.73
2022-12-03T04:11:57.900Z,4.18
2022-12-03T04:13:00.717Z,4.85
2022-12-03T04:14:02.786Z,4.39
2022-12-03T04:15:06.159Z,4.13
2022-12-03T04:16:08.408Z,5.03
2022-12-03T04:17:10.427Z,4.58
2022-12-03T04:18:12.292Z,5.22
2022-12-03T04:19:14.258Z,4.62
2022-12-03T04:20:16.567Z,4.38
2022-12-03T04:21:20.887Z,4.35
2022-12-03T04:22:22.882Z,5.21
2022-12-03T04:23:30.578Z,4.72
2022-12-03T04:24:28.539Z,4.26
2022-12-03T04:25:30.390Z,4.42
2022-12-03T04:26:33.009Z,4.31
2022-12-03T04:27:34.875Z,4.10
2022-12-03T04:28:36.756Z,4.63
2022-12-03T04:29:38.618Z,4.30
2022-12-03T04:30:40.615Z,4.49
2022-12-03T04:31:42.797Z,4.28
2022-12-03T04:32:44.646Z,4.93
2022-12-03T04:33:46.714Z,4.34
2022-12-03T04:34:48.723Z,5.23
2022-12-03T04:35:52.203Z,4.23
2022-12-03T04:36:54.560Z,4.39
2022-12-03T04:37:56.409Z,4.35
2022-12-03T04:38:58.320Z,4.97
2022-12-03T04:40:00.176Z,5.04
2022-12-03T04:41:03.663Z,4.89
2022-12-03T04:42:05.540Z,4.56
2022-12-03T04:43:07.376Z,4.95
2022-12-03T04:44:10.041Z,5.10
2022-12-03T04:45:11.916Z,5.27
2022-12-03T04:46:14.013Z,4.83
2022-12-03T04:47:18.908Z,4.35
2022-12-03T04:48:21.736Z,4.62
2022-12-03T04:49:24.839Z,5.24
2022-12-03T04:50:26.801Z,4.53
2022-12-03T04:51:28.651Z,4.03
2022-12-03T04:52:30.548Z,5.41
2022-12-03T04:53:35.363Z,4.20
2022-12-03T04:54:37.381Z,4.49
2022-12-03T04:55:39.807Z,5.31
2022-12-03T04:56:42.953Z,4.95
2022-12-03T04:57:44.828Z,4.76
2022-12-03T04:58:46.783Z,5.25
2022-12-03T04:59:48.635Z,5.09
2022-12-03T05:00:50.660Z,4.42
2022-12-03T05:01:52.784Z,4.86
2022-12-03T05:02:55.443Z,5.33
2022-12-03T05:03:57.361Z,4.97
2022-12-03T05:04:59.420Z,4.51
2022-12-03T05:06:03.124Z,5.03
2022-12-03T05:07:05.005Z,5.02
2022-12-03T05:08:06.915Z,4.62
2022-12-03T05:09:10.422Z,4.47
2022-12-03T05:10:12.911Z,4.67
2022-12-03T05:11:15.624Z,4.31
2022-12-03T05:12:17.532Z,5.00
2022-12-03T05:13:19.480Z,4.83
2022-12-03T05:14:21.347Z,5.06
2022-12-03T05:15:23.566Z,5.20
2022-12-03T05:16:25.592Z,4.98
2022-12-03T05:17:27.658Z,4.37
2022-12-03T05:18:29.624Z,5.01
2022-12-03T05:19:31.467Z,4.91
2022-12-03T05:20:33.489Z,4.49
2022-12-03T05:21:35.641Z,4.99
2022-12-03T05:22:37.510Z,5.25
2022-12-03T05:23:39.384Z,5.45
2022-12-03T05:24:41.295Z,4.69
2022-12-03T05:25:43.201Z,5.23
2022-12-03T05:26:46.077Z,4.69
2022-12-03T05:27:48.061Z,4.85
2022-12-03T05:28:50.310Z,5.68
2022-12-03T05:29:52.472Z,5.19
2022-12-03T05:30:54.707Z,5.19
2022-12-03T05:31:56.814Z,5.35
2022-12-03T05:32:58.880Z,5.35
2022-12-03T05:34:00.762Z,5.93
2022-12-03T05:35:03.126Z,5.25
2022-12-03T05:36:05.923Z,5.60
2022-12-03T05:37:07.802Z,5.79
2022-12-03T05:38:09.650Z,5.96
2022-12-03T05:39:11.538Z,5.91
2022-12-03T05:40:14.299Z,5.36
2022-12-03T05:41:16.284Z,6.09
2022-12-03T05:42:18.161Z,6.17
2022-12-03T05:43:20.043Z,5.95
2022-12-03T05:44:22.126Z,5.61
2022-12-03T05:45:30.431Z,5.82
2022-12-03T05:46:32.495Z,6.23
2022-12-03T05:47:35.458Z,5.56
2022-12-03T05:48:39.261Z,6.06
2022-12-03T05:49:41.155Z,6.79
2022-12-03T05:50:45.117Z,5.97
2022-12-03T05:51:47.038Z,6.04
2022-12-03T05:52:50.671Z,6.17
2022-12-03T05:53:52.606Z,6.25
2022-12-03T05:54:55.003Z,6.87
2022-12-03T05:55:57.127Z,7.19
2022-12-03T05:56:59.080Z,7.54
2022-12-03T05:58:01.652Z,7.81
2022-12-03T05:59:03.510Z,7.59
2022-12-03T06:00:09.619Z,7.97
2022-12-03T06:01:11.539Z,8.09
2022-12-03T06:02:13.661Z,7.70
2022-12-03T06:03:16.923Z,7.92
2022-12-03T06:04:19.031Z,7.24
2022-12-03T06:05:21.973Z,7.37
2022-12-03T06:06:23.928Z,7.56
2022-12-03T06:08:29.407Z,7.56
2022-12-03T06:09:31.287Z,8.33
2022-12-03T06:10:33.226Z,7.90
2022-12-03T06:11:35.067Z,8.50
2022-12-03T06:12:36.916Z,8.76
2022-12-03T06:13:39.631Z,8.09
2022-12-03T06:14:41.503Z,7.39
2022-12-03T06:15:44.271Z,8.39
2022-12-03T06:16:47.756Z,8.56
2022-12-03T06:17:50.344Z,7.56
2022-12-03T06:18:52.221Z,7.82
2022-12-03T06:19:54.188Z,7.79
2022-12-03T06:20:56.167Z,7.67
2022-12-03T06:22:00.676Z,8.03
2022-12-03T06:23:02.672Z,7.61
2022-12-03T06:24:05.611Z,7.51
2022-12-03T06:25:08.722Z,7.80
2022-12-03T06:26:13.495Z,9.08
2022-12-03T06:27:16.010Z,8.66
2022-12-03T06:28:18.234Z,8.74
2022-12-03T06:29:20.129Z,7.64
2022-12-03T06:30:22.110Z,8.14
2022-12-03T06:31:24.055Z,9.32
2022-12-03T11:19:16.308Z,6.06
2022-12-03T11:20:27.905Z,5.31
2022-12-03T11:25:23.049Z,5.18
2022-12-03T11:26:31.871Z,4.77
2022-12-03T11:27:33.794Z,5.43
2022-12-03T11:28:39.760Z,5.21
2022-12-03T11:29:57.190Z,5.56
2022-12-03T11:31:06.025Z,5.28
2022-12-03T11:32:08.002Z,5.38
2022-12-03T11:33:30.116Z,5.73
2022-12-03T11:34:35.803Z,5.61
2022-12-03T11:35:41.471Z,4.99
2022-12-03T11:37:13.372Z,5.10
2022-12-03T11:38:40.034Z,5.18
2022-12-03T11:39:52.415Z,5.85
2022-12-03T11:41:11.545Z,4.71
2022-12-03T11:42:23.077Z,5.12
2022-12-03T11:44:49.384Z,4.21
2022-12-03T11:45:51.756Z,4.93
2022-12-03T11:46:57.389Z,4.32
2022-12-03T11:48:03.155Z,4.53
2022-12-03T11:49:33.502Z,4.81
2022-12-03T11:50:40.315Z,3.83
2022-12-03T11:51:44.023Z,4.94
2022-12-03T11:52:50.194Z,5.76
2022-12-03T11:53:55.553Z,4.84
2022-12-03T11:55:01.253Z,4.79
2022-12-03T11:56:06.590Z,4.56
2022-12-03T11:57:30.692Z,5.08
2022-12-03T11:58:33.760Z,4.92
2022-12-03T11:59:35.627Z,4.41
2022-12-03T12:00:38.573Z,4.25
2022-12-03T12:01:41.823Z,5.00
2022-12-03T12:02:43.886Z,4.59
2022-12-03T12:03:49.360Z,4.74
2022-12-03T12:04:52.019Z,5.28
2022-12-03T12:06:08.166Z,4.39
2022-12-03T12:07:10.077Z,4.52
2022-12-03T12:08:16.437Z,4.07
2022-12-03T12:09:51.707Z,4.51
2022-12-03T12:10:53.942Z,4.43
2022-12-03T12:11:57.882Z,4.54
2022-12-03T12:12:59.859Z,4.38
2022-12-03T12:14:03.931Z,4.99
2022-12-03T12:15:41.784Z,4.64
2022-12-03T12:16:53.231Z,4.20
2022-12-03T12:17:55.201Z,4.44
2022-12-03T12:18:57.057Z,4.43
2022-12-03T12:20:25.879Z,4.76
2022-12-03T12:21:47.222Z,4.43
2022-12-03T12:22:50.465Z,4.36
2022-12-03T12:23:52.446Z,5.33
2022-12-03T12:25:02.648Z,5.33
2022-12-03T12:26:06.083Z,4.94
2022-12-03T12:27:20.322Z,4.97
2022-12-03T12:35:49.500Z,5.08
2022-12-03T13:05:09.783Z,5.37
2022-12-03T13:06:15.361Z,5.64
2022-12-03T13:07:18.214Z,5.92
2022-12-03T13:08:23.926Z,6.34
2022-12-03T13:09:26.567Z,5.60
2022-12-03T13:10:41.118Z,5.90
2022-12-03T13:11:46.279Z,5.77
2022-12-03T13:12:48.171Z,6.13
2022-12-03T13:13:51.133Z,6.45
2022-12-03T13:14:56.781Z,5.94
2022-12-03T13:16:07.174Z,6.14
2022-12-03T13:17:21.417Z,5.76
2022-12-03T13:18:26.787Z,5.93
2022-12-03T13:19:31.977Z,5.69
2022-12-03T13:20:34.021Z,5.64
2022-12-03T13:21:39.053Z,6.28
2022-12-03T13:22:44.712Z,5.07
2022-12-03T13:23:47.852Z,5.67
2022-12-03T13:24:51.469Z,6.09
2022-12-03T13:26:12.935Z,5.91
2022-12-03T13:27:21.115Z,6.35
2022-12-03T13:28:23.844Z,5.95
2022-12-03T13:29:27.455Z,5.75
2022-12-03T13:30:29.577Z,5.49
2022-12-03T13:31:33.881Z,5.81
2022-12-03T13:32:37.142Z,5.06
2022-12-03T13:33:40.039Z,5.77
2022-12-03T13:34:42.425Z,5.99
2022-12-03T13:35:44.294Z,6.11
2022-12-03T13:36:49.475Z,6.75
2022-12-03T13:37:50.824Z,5.74
2022-12-03T13:38:52.996Z,6.42
2022-12-03T13:39:57.015Z,6.23
2022-12-03T13:41:03.720Z,6.21
2022-12-03T13:42:09.350Z,6.13
2022-12-03T13:43:18.616Z,6.18
2022-12-03T13:44:20.849Z,6.03
2022-12-03T13:45:35.699Z,5.72
2022-12-03T13:46:38.589Z,7.08
2022-12-03T13:47:43.208Z,6.39
2022-12-03T13:48:45.419Z,6.29
2022-12-03T13:49:54.077Z,6.65
2022-12-03T13:50:59.204Z,7.23
2022-12-03T13:52:01.126Z,6.89
2022-12-03T13:53:12.420Z,6.93
2022-12-03T13:54:23.151Z,6.64
2022-12-03T13:57:40.332Z,6.99
2022-12-03T13:58:42.190Z,6.59
2022-12-03T13:59:44.061Z,7.13
2022-12-03T14:00:46.325Z,6.56
2022-12-03T14:01:49.334Z,6.14
2022-12-03T14:02:51.599Z,6.15
2022-12-03T14:03:53.703Z,6.41
2022-12-03T18:22:28.531Z,6.62
2022-12-03T18:23:32.040Z,6.60
2022-12-03T18:24:34.532Z,6.96
2022-12-03T18:25:36.635Z,6.73
2022-12-03T18:26:38.709Z,7.08
2022-12-03T18:27:40.593Z,6.55
2022-12-03T18:28:42.452Z,6.15
2022-12-03T18:30:53.786Z,6.36
2022-12-03T18:31:55.709Z,6.59
2022-12-03T18:32:57.793Z,7.04
2022-12-03T18:33:59.686Z,6.53
2022-12-03T18:35:01.630Z,6.51
2022-12-03T18:36:04.935Z,6.79
2022-12-03T18:37:10.711Z,6.31
2022-12-03T18:38:15.380Z,7.61
2022-12-03T18:41:38.342Z,7.07
2022-12-03T18:42:40.317Z,6.39
2022-12-03T18:43:42.292Z,7.20
2022-12-03T18:44:49.622Z,7.76
2022-12-03T18:45:49.821Z,7.56
2022-12-03T18:46:54.007Z,7.73
2022-12-03T18:47:55.668Z,6.75
2022-12-03T18:48:57.681Z,7.51
2022-12-03T18:49:59.716Z,8.05
2022-12-03T18:51:01.769Z,7.50
2022-12-03T18:52:04.125Z,7.54
2022-12-03T18:53:08.702Z,7.22
2022-12-03T18:54:12.477Z,7.55
2022-12-03T18:55:19.179Z,7.95
2022-12-03T18:56:22.054Z,7.53
2022-12-03T18:57:23.922Z,7.74
2022-12-03T18:58:25.801Z,7.35
2022-12-03T18:59:27.662Z,7.91
2022-12-03T19:00:31.936Z,7.67
2022-12-03T19:01:35.753Z,7.07
2022-12-03T19:03:01.743Z,8.39
2022-12-03T19:03:41.730Z,8.48
2022-12-03T19:04:43.795Z,8.33
2022-12-03T19:05:46.293Z,8.17
2022-12-03T19:06:48.377Z,7.48
2022-12-03T19:07:50.371Z,8.85
2022-12-03T19:08:53.488Z,9.16
2022-12-03T19:09:55.895Z,7.94
2022-12-03T19:10:59.765Z,8.12
2022-12-03T19:12:01.652Z,8.31
2022-12-03T19:13:03.556Z,8.51
2022-12-03T19:14:05.814Z,8.34
2022-12-03T19:15:08.178Z,8.55
2022-12-03T19:16:10.826Z,8.77
2022-12-03T19:17:12.916Z,8.57
2022-12-03T19:18:14.784Z,8.53
2022-12-03T19:19:16.689Z,8.90
2022-12-03T19:20:18.957Z,8.73
2022-12-03T19:21:21.718Z,7.16
2022-12-03T19:22:23.904Z,7.36
2022-12-03T19:23:25.812Z,9.02
2022-12-03T19:24:27.742Z,7.68
2022-12-03T19:25:29.625Z,9.04
2022-12-03T19:26:31.692Z,8.19
2022-12-03T19:27:33.980Z,9.51
2022-12-03T19:28:36.029Z,9.45
2022-12-03T19:29:39.247Z,8.81
2022-12-03T19:30:41.234Z,9.35
2022-12-03T19:31:43.170Z,8.71
2022-12-03T19:32:45.283Z,8.44
2022-12-03T19:33:47.757Z,8.29
2022-12-03T19:34:50.069Z,8.54
2022-12-03T19:35:56.253Z,8.68
2022-12-03T19:38:15.675Z,8.79
2022-12-03T19:39:18.463Z,8.03
2022-12-03T19:40:20.530Z,8.11
2022-12-03T19:41:23.537Z,8.21
2022-12-03T19:42:25.408Z,8.99
2022-12-03T19:43:27.685Z,8.88
2022-12-03T19:44:30.651Z,8.62
2022-12-03T19:45:35.281Z,8.43
2022-12-03T19:46:37.444Z,9.01
2022-12-03T19:47:39.329Z,8.41
2022-12-03T19:48:41.338Z,8.85
2022-12-03T19:49:43.205Z,8.15
2022-12-03T19:51:07.940Z,8.31
2022-12-03T19:51:57.565Z,8.37
2022-12-03T19:52:59.529Z,8.07
2022-12-03T19:54:03.680Z,8.06
2022-12-03T19:55:06.632Z,8.18
2022-12-03T19:56:15.282Z,8.53
2022-12-03T19:57:23.118Z,7.67
2022-12-03T19:58:22.858Z,8.77
2022-12-03T19:59:24.778Z,8.63
2022-12-03T20:00:26.737Z,8.65
2022-12-03T20:01:32.163Z,8.69
2022-12-03T20:02:34.362Z,9.53
2022-12-03T20:03:41.452Z,8.68
2022-12-03T20:04:43.387Z,8.96
2022-12-03T20:05:45.266Z,9.31
2022-12-03T20:06:47.272Z,8.16
2022-12-03T20:07:49.369Z,8.20
2022-12-03T20:09:00.675Z,8.71
2022-12-03T20:10:03.419Z,8.53
2022-12-03T20:11:23.505Z,9.05
2022-12-03T20:12:25.963Z,9.83
2022-12-03T20:13:33.428Z,8.18
2022-12-03T20:14:32.595Z,8.98
2022-12-03T20:15:37.560Z,8.45
2022-12-03T20:16:40.500Z,9.07
2022-12-03T20:17:42.600Z,8.15
2022-12-03T20:18:46.666Z,9.45
2022-12-03T20:19:48.675Z,8.75
2022-12-03T20:20:50.648Z,8.12
2022-12-03T20:21:55.270Z,8.94
2022-12-03T20:22:56.407Z,8.37
2022-12-03T20:23:58.803Z,7.81
2022-12-03T20:25:00.650Z,8.12
2022-12-03T20:26:08.034Z,8.18
2022-12-03T20:27:10.054Z,8.13
2022-12-03T20:28:11.920Z,9.05
2022-12-03T20:29:13.861Z,7.81
2022-12-03T20:30:16.227Z,7.89
2022-12-03T20:31:21.852Z,7.83
2022-12-03T20:32:24.174Z,8.37
2022-12-03T20:33:26.567Z,8.47
2022-12-03T20:34:28.489Z,8.52
2022-12-03T20:35:30.369Z,8.73
2022-12-03T20:36:33.802Z,8.06
2022-12-03T20:37:35.698Z,8.16
2022-12-03T20:38:37.865Z,8.79
2022-12-03T20:39:39.782Z,8.05
2022-12-03T20:40:41.775Z,8.75
2022-12-03T20:41:44.974Z,8.62
2022-12-03T20:42:47.605Z,8.23
2022-12-03T20:43:50.286Z,8.87
2022-12-03T20:44:53.188Z,8.43
2022-12-03T20:45:59.616Z,8.24
2022-12-03T20:46:59.953Z,8.55
2022-12-03T20:48:01.921Z,8.41
2022-12-03T20:49:04.463Z,8.47
2022-12-03T20:50:07.691Z,7.53
2022-12-03T20:51:13.281Z,8.28
2022-12-03T20:52:15.439Z,8.25
2022-12-03T20:53:24.944Z,7.29
2022-12-03T20:54:21.861Z,8.28
2022-12-03T20:55:23.773Z,7.87
2022-12-03T20:56:29.006Z,8.01
2022-12-03T20:57:31.039Z,8.02
2022-12-03T20:58:34.252Z,9.06
2022-12-03T20:59:36.175Z,9.85
2022-12-03T21:00:38.179Z,8.63
2022-12-03T21:01:40.721Z,9.08
2022-12-03T21:02:43.962Z,7.76
2022-12-03T21:03:47.624Z,7.86
2022-12-03T21:04:50.091Z,8.53
2022-12-03T21:05:56.607Z,9.28
2022-12-03T21:06:58.634Z,8.49
2022-12-03T21:08:00.570Z,8.55
2022-12-03T21:09:05.521Z,7.81
2022-12-03T21:10:08.983Z,8.44
2022-12-03T21:11:13.813Z,8.48
2022-12-03T21:12:15.728Z,8.12
2022-12-03T21:13:17.857Z,7.71
2022-12-03T21:14:19.843Z,8.91
2022-12-03T21:15:21.708Z,8.40
2022-12-03T21:16:52.191Z,8.37
2022-12-03T21:17:31.359Z,8.51
2022-12-03T21:18:34.397Z,7.68
2022-12-03T21:19:37.195Z,7.86
2022-12-03T21:20:47.075Z,6.91
2022-12-03T21:21:48.990Z,8.43
2022-12-03T21:22:51.851Z,8.08
2022-12-03T21:23:54.408Z,8.92
2022-12-03T21:24:56.378Z,7.72
2022-12-03T21:26:16.920Z,8.97
2022-12-03T21:27:21.880Z,8.26
2022-12-03T21:28:22.670Z,8.92
2022-12-03T21:29:24.557Z,9.14
2022-12-03T21:30:26.749Z,8.05
2022-12-03T21:31:28.863Z,9.02
2022-12-03T21:32:30.846Z,8.03
2022-12-03T21:33:32.997Z,9.35
2022-12-03T21:34:36.527Z,8.93
2022-12-03T21:35:38.620Z,8.66
2022-12-03T21:36:41.418Z,8.88
2022-12-03T21:37:43.296Z,8.11
2022-12-03T21:38:45.460Z,8.69
2022-12-03T21:39:47.388Z,9.23
2022-12-03T21:40:49.823Z,9.03
2022-12-03T21:42:18.948Z,8.69
2022-12-03T21:42:55.505Z,8.99
2022-12-03T21:43:58.140Z,8.99
2022-12-03T21:45:00.079Z,9.01
2022-12-03T21:48:22.254Z,10.10
2022-12-03T21:49:24.158Z,10.01
2022-12-03T21:50:26.235Z,9.48
2022-12-03T21:51:28.128Z,10.01
2022-12-03T21:52:30.020Z,9.67
2022-12-03T21:53:33.620Z,9.53
2022-12-03T21:54:35.529Z,10.04
2022-12-03T21:55:39.408Z,10.52
2022-12-03T21:56:41.396Z,11.21
2022-12-03T21:57:43.250Z,10.73
2022-12-03T21:58:45.891Z,10.77
2022-12-03T21:59:47.803Z,10.65
2022-12-03T22:00:50.453Z,10.03
2022-12-03T22:01:52.643Z,9.88
2022-12-03T22:02:54.683Z,10.35
2022-12-03T22:03:57.678Z,9.54
2022-12-03T22:04:59.607Z,8.94
2022-12-03T22:06:01.483Z,9.63
2022-12-03T22:07:05.854Z,9.30
2022-12-03T22:08:08.846Z,9.16
2022-12-03T22:09:10.962Z,8.96
2022-12-03T22:10:12.958Z,8.96
2022-12-03T22:11:18.285Z,9.17
2022-12-03T22:12:20.192Z,8.99
2022-12-03T22:13:22.166Z,9.49
2022-12-03T22:14:24.777Z,9.94
2022-12-03T22:15:26.873Z,9.53
2022-12-03T22:16:28.915Z,9.15
2022-12-03T22:17:30.923Z,9.54
2022-12-03T22:18:34.415Z,9.73
2022-12-03T22:19:36.325Z,9.08
2022-12-03T22:20:43.170Z,9.10
2022-12-03T22:21:45.074Z,9.13
2022-12-03T22:22:46.970Z,9.93
2022-12-03T22:23:49.134Z,9.34
2022-12-03T22:24:51.010Z,10.26
2022-12-03T22:26:00.718Z,10.61
2022-12-03T22:27:02.792Z,9.36
2022-12-03T22:28:04.678Z,9.83
2022-12-03T22:29:06.562Z,10.85
2022-12-03T22:30:09.744Z,9.79
2022-12-03T22:31:12.946Z,10.32
2022-12-03T22:32:16.458Z,10.06
2022-12-03T22:33:19.036Z,9.88
2022-12-03T22:34:21.317Z,9.16
2022-12-03T22:35:23.383Z,9.57
2022-12-03T22:36:25.346Z,9.35
2022-12-03T22:37:27.235Z,9.93
2022-12-03T22:38:30.745Z,9.36
2022-12-03T22:39:33.185Z,9.52
2022-12-03T22:40:38.762Z,8.63
2022-12-03T22:41:40.790Z,8.98
2022-12-03T22:42:47.813Z,9.21
2022-12-03T22:43:50.356Z,9.44
2022-12-03T22:44:52.273Z,9.68
2022-12-03T22:45:55.343Z,9.21
2022-12-03T22:46:57.645Z,9.51
2022-12-03T22:47:59.583Z,9.81
2022-12-03T22:49:06.843Z,9.39
2022-12-03T22:50:07.425Z,9.15
2022-12-03T22:53:24.412Z,10.31
2022-12-03T22:54:26.270Z,10.35
2022-12-03T22:55:29.160Z,9.90
2022-12-03T22:56:31.588Z,9.58
2022-12-03T22:57:33.461Z,9.23
2022-12-03T22:58:37.628Z,9.99
2022-12-03T22:59:39.560Z,10.09
2022-12-03T23:00:41.724Z,10.36
2022-12-03T23:01:43.800Z,11.27
2022-12-03T23:02:45.758Z,10.93
2022-12-03T23:03:48.255Z,10.29
2022-12-03T23:04:50.336Z,10.93
2022-12-03T23:05:52.284Z,11.91
2022-12-03T23:06:54.365Z,11.01
2022-12-03T23:07:56.307Z,11.63
2022-12-03T23:08:59.464Z,12.12
2022-12-03T23:10:01.426Z,11.36
2022-12-03T23:11:03.705Z,11.23
2022-12-03T23:12:05.879Z,11.14
2022-12-03T23:13:08.983Z,12.05
2022-12-03T23:14:12.038Z,11.48
2022-12-03T23:15:13.932Z,12.21
2022-12-03T23:18:32.575Z,12.19
2022-12-03T23:19:35.097Z,11.78
2022-12-03T23:20:46.007Z,11.68
2022-12-03T23:21:47.936Z,11.82
2022-12-03T23:22:51.023Z,11.43
2022-12-03T23:23:53.027Z,12.40
2022-12-03T23:24:54.923Z,10.85
2022-12-03T23:26:03.265Z,9.99
2022-12-03T23:27:05.218Z,10.68
2022-12-03T23:28:07.571Z,10.43
2022-12-03T23:29:10.328Z,9.97
2022-12-03T23:30:13.733Z,9.91
2022-12-03T23:31:25.197Z,10.27
2022-12-03T23:32:27.241Z,10.32
2022-12-03T23:33:32.946Z,10.33
2022-12-03T23:34:33.718Z,9.79
2022-12-03T23:35:39.552Z,9.58
2022-12-03T23:36:41.745Z,9.65
2022-12-03T23:37:43.992Z,11.07
2022-12-03T23:38:46.256Z,9.57
2022-12-03T23:39:49.125Z,10.41
2022-12-03T23:40:51.130Z,10.25
2022-12-03T23:41:52.982Z,9.83
2022-12-03T23:42:54.849Z,9.40
2022-12-03T23:43:56.726Z,9.26
2022-12-03T23:44:58.816Z,9.49
2022-12-03T23:46:10.343Z,9.25
2022-12-03T23:47:14.079Z,9.34
2022-12-03T23:48:15.960Z,9.37
2022-12-03T23:49:17.856Z,9.90
2022-12-03T23:50:19.967Z,9.20
2022-12-03T23:51:24.760Z,10.81
2022-12-03T23:52:26.686Z,9.51
2022-12-03T23:53:28.573Z,9.42
2022-12-03T23:54:31.493Z,9.38
2022-12-03T23:55:33.402Z,9.69
2022-12-03T23:56:35.390Z,10.09
2022-12-03T23:57:37.240Z,10.20
2022-12-03T23:58:40.266Z,9.46
2022-12-03T23:59:42.158Z,10.26
